Time;durP1;ratioP1;P1;durP2;ratioP2;P2;SDS_P1;SDS_P2;PMS_P1;PMS_P2;Temp;Humidity;BMP_temperature;BMP_pressure;BME280_temperature;BME280_humidity;BME280_pressure;Samples;Min_cycle;Max_cycle;Signal;HPM_P1;HPM_P2
2024/01/07 00:01:53;;;;;;;11.40;5.90;;;5.90;99.90;;;;;;4974061;28;20023;-77
2024/01/07 00:04:19;;;;;;;13.80;6.23;;;5.90;99.90;;;;;;4956098;28;20030;-77
2024/01/07 00:06:47;;;;;;;13.77;5.40;;;5.90;99.90;;;;;;4956743;28;20042;-77
2024/01/07 00:09:12;;;;;;;11.40;5.27;;;6.00;99.90;;;;;;4955986;28;20031;-78
2024/01/07 00:11:39;;;;;;;11.73;5.80;;;6.00;99.90;;;;;;4956798;28;20038;-77
2024/01/07 00:14:04;;;;;;;15.77;5.50;;;6.00;99.90;;;;;;4955878;28;20034;-77
2024/01/07 00:16:30;;;;;;;13.37;6.00;;;6.00;99.90;;;;;;4956670;28;20030;-77
2024/01/07 00:18:56;;;;;;;12.63;6.00;;;5.90;99.90;;;;;;4956635;28;20365;-77
2024/01/07 00:21:21;;;;;;;12.47;5.97;;;5.90;99.90;;;;;;4973500;28;20131;-78
2024/01/07 00:23:47;;;;;;;13.53;6.90;;;6.00;99.90;;;;;;4956588;28;20062;-77
2024/01/07 00:26:12;;;;;;;14.20;6.90;;;5.90;99.90;;;;;;4973315;28;20093;-78
2024/01/07 00:28:38;;;;;;;12.00;6.57;;;5.80;99.90;;;;;;4956479;28;20472;-77
2024/01/07 00:31:03;;;;;;;12.13;6.20;;;5.90;99.90;;;;;;4955770;28;20034;-78
2024/01/07 00:33:31;;;;;;;13.40;6.70;;;5.80;99.90;;;;;;4973708;28;20089;-77
2024/01/07 00:35:57;;;;;;;14.70;7.40;;;5.80;99.90;;;;;;4957091;28;20469;-77
2024/01/07 00:38:22;;;;;;;11.23;6.43;;;5.80;99.90;;;;;;4976682;28;20054;-78
2024/01/07 00:40:48;;;;;;;11.83;6.07;;;5.80;99.90;;;;;;4976549;28;20035;-78
2024/01/07 00:43:15;;;;;;;12.20;6.20;;;5.80;99.90;;;;;;4975434;28;20134;-77
2024/01/07 00:45:40;;;;;;;13.10;5.80;;;5.80;99.90;;;;;;4959624;28;20462;-78
2024/01/07 00:48:06;;;;;;;12.97;6.33;;;5.80;99.90;;;;;;4959261;28;20027;-77
2024/01/07 00:50:32;;;;;;;14.13;6.87;;;5.80;99.90;;;;;;4977036;28;20061;-78
2024/01/07 00:52:57;;;;;;;12.93;6.50;;;5.80;99.90;;;;;;4959711;28;20050;-77
2024/01/07 00:55:23;;;;;;;14.63;7.43;;;5.80;99.90;;;;;;4976539;28;20038;-78
2024/01/07 00:57:50;;;;;;;13.43;6.23;;;5.80;99.90;;;;;;4976865;28;20054;-78
2024/01/07 01:00:16;;;;;;;13.50;6.73;;;5.70;99.90;;;;;;4959140;28;20027;-78
2024/01/07 01:02:41;;;;;;;14.23;6.40;;;5.70;99.90;;;;;;4959556;28;20030;-78
2024/01/07 01:05:07;;;;;;;13.03;6.30;;;5.80;99.90;;;;;;4976226;28;20464;-78
2024/01/07 01:07:33;;;;;;;12.80;6.63;;;5.70;99.90;;;;;;4959604;28;20062;-77
2024/01/07 01:09:59;;;;;;;12.53;6.27;;;5.70;99.90;;;;;;4959304;28;20451;-77
2024/01/07 01:12:24;;;;;;;13.43;6.27;;;5.80;99.90;;;;;;4976048;28;20035;-77
2024/01/07 01:14:50;;;;;;;14.80;6.60;;;5.70;99.90;;;;;;4959228;28;20030;-78
2024/01/07 01:17:15;;;;;;;12.67;6.53;;;5.70;99.90;;;;;;4958866;28;20027;-78
2024/01/07 01:19:41;;;;;;;13.50;7.10;;;5.70;99.90;;;;;;4976411;28;20042;-77
2024/01/07 01:22:07;;;;;;;12.03;6.53;;;5.70;99.90;;;;;;4958838;28;20107;-78
2024/01/07 01:24:32;;;;;;;12.77;6.73;;;5.70;99.90;;;;;;4959094;28;20030;-77
2024/01/07 01:26:58;;;;;;;13.43;6.37;;;5.70;99.90;;;;;;4976324;28;20027;-77
2024/01/07 01:29:24;;;;;;;12.27;6.30;;;5.70;99.90;;;;;;4957862;28;20031;-77
2024/01/07 01:31:49;;;;;;;14.77;7.03;;;5.70;99.90;;;;;;4976036;28;20083;-77
2024/01/07 01:34:15;;;;;;;15.83;7.07;;;5.70;99.90;;;;;;4958404;28;20054;-77
2024/01/07 01:36:40;;;;;;;14.53;6.47;;;5.60;99.90;;;;;;4958610;28;20030;-78
2024/01/07 01:39:06;;;;;;;13.20;6.90;;;5.60;99.90;;;;;;4974563;28;20034;-78
2024/01/07 01:41:32;;;;;;;13.97;6.53;;;5.60;99.90;;;;;;4974738;28;20444;-78
2024/01/07 01:43:59;;;;;;;14.10;6.33;;;5.60;99.90;;;;;;4958755;28;20031;-78
2024/01/07 01:46:25;;;;;;;15.27;7.40;;;5.60;99.90;;;;;;4975712;28;20039;-77
2024/01/07 01:48:51;;;;;;;16.33;7.50;;;5.60;99.90;;;;;;4975348;28;20037;-77
2024/01/07 01:51:18;;;;;;;14.10;6.33;;;5.60;99.90;;;;;;4974258;28;20044;-77
2024/01/07 01:53:45;;;;;;;15.93;7.60;;;5.60;99.90;;;;;;4958688;28;20085;-77
2024/01/07 01:56:11;;;;;;;16.37;6.87;;;5.60;99.90;;;;;;4957915;28;20109;-77
2024/01/07 01:58:36;;;;;;;14.63;6.50;;;5.60;99.90;;;;;;4958596;28;20448;-77
2024/01/07 02:01:03;;;;;;;14.13;6.83;;;5.60;99.90;;;;;;4975971;28;20031;-77
2024/01/07 02:03:29;;;;;;;14.27;6.33;;;5.60;99.90;;;;;;4958377;28;20161;-77
2024/01/07 02:05:56;;;;;;;14.47;7.17;;;5.60;99.90;;;;;;4975554;28;20118;-77
2024/01/07 02:08:23;;;;;;;16.20;6.80;;;5.60;99.90;;;;;;4975283;28;20026;-77
2024/01/07 02:10:48;;;;;;;15.23;6.97;;;5.60;99.90;;;;;;4958102;28;20026;-77
2024/01/07 02:13:14;;;;;;;14.97;6.93;;;5.50;99.90;;;;;;4974084;28;20400;-77
2024/01/07 02:15:40;;;;;;;14.37;6.53;;;5.50;99.90;;;;;;4974397;28;20027;-78
2024/01/07 02:18:05;;;;;;;17.13;6.30;;;5.60;99.90;;;;;;4957847;28;20488;-78
2024/01/07 02:20:31;;;;;;;13.70;7.00;;;5.50;99.90;;;;;;4974217;28;20113;-77
2024/01/07 02:22:57;;;;;;;12.97;6.50;;;5.50;99.90;;;;;;4958173;28;20033;-77
2024/01/07 02:25:23;;;;;;;13.07;6.73;;;5.50;99.90;;;;;;4957715;28;20061;-77
2024/01/07 02:27:49;;;;;;;15.50;6.30;;;5.60;99.90;;;;;;4975214;28;20029;-77
2024/01/07 02:30:15;;;;;;;15.10;6.57;;;5.60;99.90;;;;;;4974767;28;20030;-78
2024/01/07 02:32:40;;;;;;;16.67;6.53;;;5.60;99.90;;;;;;4958123;28;20034;-77
2024/01/07 02:35:06;;;;;;;15.60;7.10;;;5.60;99.90;;;;;;4957741;28;20121;-79
2024/01/07 02:37:32;;;;;;;15.67;6.63;;;5.60;99.90;;;;;;4957686;28;20114;-77
2024/01/07 02:39:57;;;;;;;16.30;6.83;;;5.60;99.90;;;;;;4957381;28;20035;-77
2024/01/07 02:42:23;;;;;;;13.80;6.80;;;5.60;99.90;;;;;;4957594;28;20472;-78
2024/01/07 02:44:48;;;;;;;13.37;6.80;;;5.60;99.90;;;;;;4957746;28;20034;-78
2024/01/07 02:47:14;;;;;;;14.37;6.30;;;5.60;99.90;;;;;;4957444;28;20027;-78
2024/01/07 02:49:40;;;;;;;13.50;6.13;;;5.50;99.90;;;;;;4973372;28;20034;-78
2024/01/07 02:52:05;;;;;;;14.37;6.47;;;5.60;99.90;;;;;;4957727;28;20034;-77
2024/01/07 02:54:31;;;;;;;13.33;5.97;;;5.60;99.90;;;;;;4974509;28;20549;-78
2024/01/07 02:56:56;;;;;;;12.97;6.37;;;5.60;99.90;;;;;;4957634;28;20023;-77
2024/01/07 02:59:22;;;;;;;13.03;6.33;;;5.60;99.90;;;;;;4957192;28;20169;-77
2024/01/07 03:01:47;;;;;;;12.97;5.00;;;5.60;99.90;;;;;;4957504;28;20468;-78
2024/01/07 03:04:15;;;;;;;12.00;5.37;;;5.50;99.90;;;;;;4973125;28;20034;-78
2024/01/07 03:06:41;;;;;;;14.03;5.37;;;5.60;99.90;;;;;;4957579;28;20035;-77
2024/01/07 03:09:07;;;;;;;10.63;5.63;;;5.60;99.90;;;;;;4974332;28;20062;-90
2024/01/07 03:11:33;;;;;;;10.00;5.03;;;5.60;99.90;;;;;;4974659;28;20038;-77
2024/01/07 03:13:59;;;;;;;9.83;5.10;;;5.60;99.90;;;;;;4957364;28;20081;-77
2024/01/07 03:16:26;;;;;;;12.20;5.50;;;5.60;99.90;;;;;;4974013;28;20035;-78
2024/01/07 03:18:52;;;;;;;13.27;5.40;;;5.60;99.90;;;;;;4957540;28;20035;-77
2024/01/07 03:21:21;;;;;;;15.70;5.70;;;5.50;99.90;;;;;;4974108;28;20079;-78
2024/01/07 03:23:48;;;;;;;12.77;5.47;;;5.60;99.90;;;;;;4974490;28;20028;-77
2024/01/07 03:26:15;;;;;;;12.97;5.83;;;5.60;99.90;;;;;;4956300;28;20105;-78
2024/01/07 03:28:41;;;;;;;14.70;5.80;;;5.50;99.90;;;;;;4957317;28;20034;-77
2024/01/07 03:31:12;;;;;;;15.67;5.60;;;5.60;99.90;;;;;;4957258;28;20026;-77
2024/01/07 03:33:38;;;;;;;9.10;3.88;;;5.50;99.90;;;;;;4973965;28;20062;-77
2024/01/07 03:36:12;;;;;;;12.60;5.27;;;5.50;99.90;;;;;;4974358;28;20530;-77
2024/01/07 03:38:38;;;;;;;12.77;5.17;;;5.50;99.90;;;;;;4974408;28;20061;-78
2024/01/07 03:41:04;;;;;;;14.17;5.40;;;5.50;99.90;;;;;;4957078;28;20066;-77
2024/01/07 03:43:30;;;;;;;14.17;5.67;;;5.50;99.90;;;;;;4956601;28;20050;-78
2024/01/07 03:45:56;;;;;;;12.70;5.20;;;5.50;99.90;;;;;;4974067;28;20038;-78
2024/01/07 03:48:22;;;;;;;12.30;4.73;;;5.50;99.90;;;;;;4956723;28;20038;-78
2024/01/07 03:50:47;;;;;;;11.70;4.87;;;5.50;99.90;;;;;;4956932;28;20037;-78
2024/01/07 03:53:15;;;;;;;10.43;4.93;;;5.50;99.90;;;;;;4956721;28;20373;-78
2024/01/07 03:55:40;;;;;;;11.10;5.13;;;5.50;99.90;;;;;;4956935;28;20031;-78
2024/01/07 03:58:06;;;;;;;12.30;5.40;;;5.50;99.90;;;;;;4957057;28;20031;-78
2024/01/07 04:00:36;;;;;;;12.27;5.50;;;5.50;99.90;;;;;;4973605;28;20023;-78
2024/01/07 04:03:02;;;;;;;11.23;4.93;;;5.50;99.90;;;;;;4956943;28;20031;-77
2024/01/07 04:05:29;;;;;;;11.83;4.97;;;5.50;99.90;;;;;;4972323;28;20039;-78
2024/01/07 04:07:54;;;;;;;12.17;5.50;;;5.50;99.90;;;;;;4972891;28;20030;-77
2024/01/07 04:10:20;;;;;;;11.50;5.63;;;5.50;99.90;;;;;;4956502;28;20113;-78
2024/01/07 04:12:45;;;;;;;14.90;6.37;;;5.50;99.90;;;;;;4976385;28;20054;-78
2024/01/07 04:15:12;;;;;;;11.20;5.33;;;5.50;99.90;;;;;;4960189;28;20065;-86
2024/01/07 04:17:38;;;;;;;12.93;5.40;;;5.50;99.90;;;;;;4976680;28;20031;-77
2024/01/07 04:20:04;;;;;;;10.90;6.00;;;5.50;99.90;;;;;;4960544;28;20034;-77
2024/01/07 04:22:29;;;;;;;10.67;5.80;;;5.50;99.90;;;;;;4959860;28;20090;-78
2024/01/07 04:24:55;;;;;;;10.63;5.50;;;5.50;99.90;;;;;;4976247;28;20431;-77
2024/01/07 04:27:21;;;;;;;12.70;5.93;;;5.50;99.90;;;;;;4960079;28;20062;-78
2024/01/07 04:29:46;;;;;;;11.93;5.27;;;5.50;99.90;;;;;;4960347;28;20031;-77
2024/01/07 04:32:12;;;;;;;12.30;5.20;;;5.50;99.90;;;;;;4975805;28;20396;-90
2024/01/07 04:34:38;;;;;;;10.80;4.97;;;5.50;99.90;;;;;;4977712;28;20035;-77
2024/01/07 04:37:03;;;;;;;9.83;4.77;;;5.40;99.90;;;;;;4960081;28;20137;-77
2024/01/07 04:39:29;;;;;;;10.70;5.20;;;5.40;99.90;;;;;;4976617;28;20118;-78
2024/01/07 04:41:54;;;;;;;11.57;4.30;;;5.40;99.90;;;;;;4976127;28;20027;-78
2024/01/07 04:44:20;;;;;;;9.53;5.17;;;5.40;99.90;;;;;;4959596;28;20027;-78
2024/01/07 04:46:47;;;;;;;9.80;4.60;;;5.40;99.90;;;;;;4975832;28;20477;-78
2024/01/07 04:49:13;;;;;;;11.90;4.83;;;5.40;99.90;;;;;;4959524;28;20027;-92
2024/01/07 04:51:38;;;;;;;10.57;5.03;;;5.40;99.90;;;;;;4960256;28;20033;-78
2024/01/07 04:54:05;;;;;;;9.37;4.93;;;5.40;99.90;;;;;;4977111;28;20376;-77
2024/01/07 04:56:31;;;;;;;11.23;4.97;;;5.40;99.90;;;;;;4976472;28;20030;-78
2024/01/07 04:58:57;;;;;;;9.87;4.60;;;5.40;99.90;;;;;;4976928;28;20023;-78
2024/01/07 05:01:22;;;;;;;10.70;4.73;;;5.40;99.90;;;;;;4975426;28;20027;-78
2024/01/07 05:03:48;;;;;;;13.47;5.50;;;5.40;99.90;;;;;;4975689;28;20495;-77
2024/01/07 05:06:14;;;;;;;10.23;5.20;;;5.40;99.90;;;;;;4959344;28;20469;-94
2024/01/07 05:08:41;;;;;;;10.17;4.97;;;5.40;99.90;;;;;;4975764;28;20358;-77
2024/01/07 05:11:06;;;;;;;12.23;5.30;;;5.40;99.90;;;;;;4976734;28;20031;-77
2024/01/07 05:13:32;;;;;;;13.73;5.37;;;5.40;99.90;;;;;;4975168;28;20037;-78
2024/01/07 05:15:58;;;;;;;11.13;5.80;;;5.40;99.90;;;;;;4959255;28;20400;-77
2024/01/07 05:18:24;;;;;;;11.40;5.50;;;5.40;99.90;;;;;;4958646;28;20117;-78
2024/01/07 05:20:51;;;;;;;10.67;5.73;;;5.40;99.90;;;;;;4975115;28;20023;-77
2024/01/07 05:23:17;;;;;;;11.40;5.17;;;5.40;99.90;;;;;;4974836;28;20027;-79
2024/01/07 05:25:43;;;;;;;14.63;5.70;;;5.30;99.90;;;;;;4958916;28;20046;-78
2024/01/07 05:28:09;;;;;;;10.27;5.30;;;5.30;99.90;;;;;;4959294;28;20081;-78
2024/01/07 05:30:34;;;;;;;10.80;5.10;;;5.40;99.90;;;;;;4958588;28;20030;-77
2024/01/07 05:33:00;;;;;;;12.13;5.67;;;5.30;99.90;;;;;;4975106;28;20543;-78
2024/01/07 05:35:25;;;;;;;13.17;5.57;;;5.30;99.90;;;;;;4975626;28;20023;-77
2024/01/07 05:37:51;;;;;;;12.33;5.97;;;5.30;99.90;;;;;;4975679;28;20047;-78
2024/01/07 05:40:16;;;;;;;10.87;5.70;;;5.30;99.90;;;;;;4958553;28;20031;-85
2024/01/07 05:42:42;;;;;;;10.87;5.47;;;5.30;99.90;;;;;;4974901;28;20085;-78
2024/01/07 05:45:08;;;;;;;12.37;6.40;;;5.30;99.90;;;;;;4958620;28;20117;-78
2024/01/07 05:47:33;;;;;;;12.97;5.87;;;5.30;99.90;;;;;;4974362;28;20035;-81
2024/01/07 05:49:59;;;;;;;11.13;6.07;;;5.30;99.90;;;;;;4958572;28;20030;-77
2024/01/07 05:52:25;;;;;;;10.97;5.73;;;5.30;99.90;;;;;;4974484;28;20027;-77
2024/01/07 05:54:50;;;;;;;12.80;5.67;;;5.30;99.90;;;;;;4958651;28;20576;-77
2024/01/07 05:57:16;;;;;;;10.97;5.70;;;5.30;99.90;;;;;;4958637;28;20118;-78
2024/01/07 05:59:44;;;;;;;10.90;5.67;;;5.30;99.90;;;;;;4976021;28;20041;-77
2024/01/07 06:02:09;;;;;;;11.70;5.50;;;5.30;99.90;;;;;;4975647;28;20030;-78
2024/01/07 06:04:37;;;;;;;12.20;5.87;;;5.30;99.90;;;;;;4973936;28;20451;-78
2024/01/07 06:07:03;;;;;;;9.83;5.27;;;5.30;99.90;;;;;;4958435;28;20392;-78
2024/01/07 06:09:29;;;;;;;11.53;6.17;;;5.30;99.90;;;;;;4974606;28;20114;-77
2024/01/07 06:11:55;;;;;;;11.17;5.73;;;5.30;99.90;;;;;;4975495;28;20109;-78
2024/01/07 06:14:21;;;;;;;10.37;5.60;;;5.30;99.90;;;;;;4975188;28;20353;-79
2024/01/07 06:16:47;;;;;;;11.87;5.60;;;5.40;99.90;;;;;;4958130;28;20081;-78
2024/01/07 06:19:14;;;;;;;10.27;5.60;;;5.40;99.90;;;;;;4975307;28;20034;-78
2024/01/07 06:21:40;;;;;;;11.17;5.10;;;5.40;99.90;;;;;;4957505;28;20070;-78
2024/01/07 06:24:07;;;;;;;10.47;5.47;;;5.40;99.90;;;;;;4957994;28;20058;-78
2024/01/07 06:26:33;;;;;;;10.43;5.43;;;5.40;99.90;;;;;;4974775;28;20233;-77
2024/01/07 06:28:59;;;;;;;11.23;5.33;;;5.40;99.90;;;;;;4975258;28;20420;-78
2024/01/07 06:31:25;;;;;;;8.90;5.20;;;5.40;99.90;;;;;;4973645;28;20052;-78
2024/01/07 06:33:51;;;;;;;10.50;5.27;;;5.40;99.90;;;;;;4973664;28;20031;-78
2024/01/07 06:36:16;;;;;;;10.40;5.30;;;5.40;99.90;;;;;;4957745;28;20125;-78
2024/01/07 06:38:42;;;;;;;10.70;4.97;;;5.40;99.90;;;;;;4974153;28;20130;-78
2024/01/07 06:41:09;;;;;;;8.83;5.23;;;5.40;99.90;;;;;;4975138;28;20487;-77
2024/01/07 06:43:35;;;;;;;10.37;5.47;;;5.30;99.90;;;;;;4957509;28;20436;-78
2024/01/07 06:46:00;;;;;;;10.07;5.27;;;5.30;99.90;;;;;;4957770;28;20065;-77
2024/01/07 06:48:26;;;;;;;9.93;4.80;;;5.30;99.90;;;;;;4973383;28;20066;-78
2024/01/07 06:50:51;;;;;;;9.93;5.00;;;5.40;99.90;;;;;;4957799;28;20027;-78
2024/01/07 06:53:17;;;;;;;10.53;4.90;;;5.40;99.90;;;;;;4973868;28;20384;-78
2024/01/07 06:55:43;;;;;;;9.90;4.83;;;5.40;99.90;;;;;;4957121;28;20242;-78
2024/01/07 06:58:08;;;;;;;10.73;5.10;;;5.40;99.90;;;;;;4974737;28;20027;-77
2024/01/07 07:00:34;;;;;;;8.87;4.60;;;5.40;99.90;;;;;;4957098;28;20039;-77
2024/01/07 07:02:59;;;;;;;10.90;5.53;;;5.40;99.90;;;;;;4973679;28;20023;-77
2024/01/07 07:05:25;;;;;;;10.97;5.20;;;5.40;99.90;;;;;;4973211;28;20117;-77
2024/01/07 07:07:50;;;;;;;10.63;4.93;;;5.40;99.90;;;;;;4957557;28;20027;-77
2024/01/07 07:10:16;;;;;;;10.10;5.30;;;5.40;99.90;;;;;;4957516;28;20463;-77
2024/01/07 07:12:42;;;;;;;13.20;6.10;;;5.40;99.90;;;;;;4957060;28;20042;-78
2024/01/07 07:15:09;;;;;;;9.53;5.03;;;5.40;99.90;;;;;;4974610;28;20114;-78
2024/01/07 07:17:36;;;;;;;9.13;4.60;;;5.40;99.90;;;;;;4974011;28;20062;-77
2024/01/07 07:20:02;;;;;;;11.87;5.10;;;5.40;99.90;;;;;;4956833;28;20086;-78
2024/01/07 07:22:28;;;;;;;9.80;4.80;;;5.40;99.90;;;;;;4973124;28;20026;-77
2024/01/07 07:24:54;;;;;;;10.43;5.30;;;5.40;99.90;;;;;;4973800;28;20039;-78
2024/01/07 07:27:19;;;;;;;11.10;5.50;;;5.40;99.90;;;;;;4957193;28;20034;-78
2024/01/07 07:29:45;;;;;;;12.10;5.37;;;5.40;99.90;;;;;;4973900;28;20035;-78
2024/01/07 07:32:10;;;;;;;13.43;6.20;;;5.40;99.90;;;;;;4974474;28;20038;-78
2024/01/07 07:34:36;;;;;;;14.90;5.47;;;5.40;99.90;;;;;;4957009;28;20026;-77
2024/01/07 07:37:02;;;;;;;10.53;5.70;;;5.40;99.90;;;;;;4957488;28;20106;-77
2024/01/07 07:39:28;;;;;;;12.83;5.77;;;5.40;99.90;;;;;;4956994;28;20499;-78
2024/01/07 07:41:54;;;;;;;12.33;5.70;;;5.40;99.90;;;;;;4957239;28;20150;-77
2024/01/07 07:44:19;;;;;;;10.60;5.40;;;5.40;99.90;;;;;;4957255;28;20031;-77
2024/01/07 07:46:45;;;;;;;11.13;5.57;;;5.40;99.90;;;;;;4974746;28;20130;-77
2024/01/07 07:49:11;;;;;;;13.50;5.43;;;5.50;99.90;;;;;;4961034;28;20029;-79
2024/01/07 07:51:36;;;;;;;12.60;5.97;;;5.50;99.90;;;;;;4977979;28;20061;-78
2024/01/07 07:54:03;;;;;;;12.10;5.40;;;5.60;99.90;;;;;;4961190;28;20118;-78
2024/01/07 07:56:29;;;;;;;14.53;6.10;;;5.60;99.90;;;;;;4976892;28;20125;-78
2024/01/07 07:58:54;;;;;;;14.87;5.83;;;5.60;99.90;;;;;;4960701;28;20110;-78
2024/01/07 08:01:20;;;;;;;14.93;6.03;;;5.60;99.90;;;;;;4960966;28;20061;-78
2024/01/07 08:03:46;;;;;;;12.37;6.23;;;5.50;99.90;;;;;;4960483;28;20383;-78
2024/01/07 08:06:11;;;;;;;13.13;6.40;;;5.50;99.90;;;;;;4977877;28;20057;-77
2024/01/07 08:08:37;;;;;;;11.93;5.53;;;5.50;99.90;;;;;;4959875;28;20054;-77
2024/01/07 08:11:05;;;;;;;13.13;5.97;;;5.50;99.90;;;;;;4976666;28;20122;-78
2024/01/07 08:13:31;;;;;;;12.27;5.43;;;5.50;99.90;;;;;;4959951;28;20037;-78
2024/01/07 08:15:56;;;;;;;13.53;5.87;;;5.50;99.90;;;;;;4960527;28;20035;-77
2024/01/07 08:18:22;;;;;;;13.37;5.60;;;5.50;99.90;;;;;;4960401;28;20038;-79
2024/01/07 08:20:47;;;;;;;14.47;5.60;;;5.50;99.90;;;;;;4960042;28;20034;-78
2024/01/07 08:23:13;;;;;;;13.47;5.40;;;5.60;99.90;;;;;;4960395;28;20035;-77
2024/01/07 08:25:39;;;;;;;12.90;6.10;;;5.60;99.90;;;;;;4958813;28;20046;-77
2024/01/07 08:28:05;;;;;;;13.53;6.33;;;5.60;99.90;;;;;;4977046;28;20038;-77
2024/01/07 08:30:30;;;;;;;10.80;5.90;;;5.60;99.90;;;;;;4959872;28;20035;-79
2024/01/07 08:32:56;;;;;;;13.57;5.37;;;5.60;99.90;;;;;;4976287;28;20019;-78
2024/01/07 08:35:22;;;;;;;11.23;5.03;;;5.60;99.90;;;;;;4977653;28;20038;-77
2024/01/07 08:37:47;;;;;;;15.33;5.97;;;5.60;99.90;;;;;;4956262;29;20572;-77
2024/01/07 08:40:13;;;;;;;14.37;5.80;;;5.60;99.90;;;;;;4956663;29;20550;-78
2024/01/07 08:42:39;;;;;;;14.17;5.83;;;5.70;99.90;;;;;;4957638;28;20536;-78
2024/01/07 08:45:05;;;;;;;14.20;6.53;;;5.70;99.90;;;;;;4956784;29;20039;-77
2024/01/07 08:47:31;;;;;;;11.87;5.60;;;5.70;99.90;;;;;;4956283;29;20034;-78
2024/01/07 08:49:57;;;;;;;12.17;5.63;;;5.70;99.90;;;;;;4958133;28;20023;-78
2024/01/07 08:52:23;;;;;;;13.40;5.93;;;5.70;99.90;;;;;;4972679;28;20034;-77
2024/01/07 08:54:49;;;;;;;12.90;6.40;;;5.80;99.90;;;;;;4956029;29;20069;-77
2024/01/07 08:57:14;;;;;;;13.80;6.17;;;5.80;99.90;;;;;;4957200;28;20059;-77
2024/01/07 08:59:40;;;;;;;14.83;6.17;;;5.80;99.90;;;;;;4955588;29;20031;-76
2024/01/07 09:02:05;;;;;;;13.00;6.23;;;5.80;99.90;;;;;;4971864;28;20037;-77
2024/01/07 09:04:33;;;;;;;13.97;6.90;;;5.90;99.90;;;;;;4971279;28;20028;-77
2024/01/07 09:06:59;;;;;;;12.80;5.97;;;5.90;99.90;;;;;;4957112;28;20081;-77
2024/01/07 09:09:24;;;;;;;12.53;6.27;;;5.90;99.90;;;;;;4956842;28;20407;-77
2024/01/07 09:11:52;;;;;;;15.90;7.53;;;5.90;99.90;;;;;;4955436;29;20042;-77
2024/01/07 09:14:17;;;;;;;15.03;7.03;;;5.90;99.90;;;;;;4956145;29;20027;-77
2024/01/07 09:16:43;;;;;;;14.13;6.57;;;5.90;99.90;;;;;;4955518;29;20027;-77
2024/01/07 09:19:08;;;;;;;14.90;6.27;;;5.90;99.90;;;;;;4955961;29;20548;-77
2024/01/07 09:21:34;;;;;;;16.30;6.37;;;5.90;99.90;;;;;;4954897;29;20030;-77
2024/01/07 09:23:59;;;;;;;14.87;6.73;;;5.90;99.90;;;;;;4956548;28;20039;-77
2024/01/07 09:26:25;;;;;;;15.37;6.83;;;5.90;99.90;;;;;;4956371;28;20505;-77
2024/01/07 09:28:53;;;;;;;19.80;8.03;;;5.90;99.90;;;;;;4954978;29;20109;-77
2024/01/07 09:31:19;;;;;;;17.30;7.33;;;5.90;99.90;;;;;;4956789;28;20051;-77
2024/01/07 09:33:44;;;;;;;14.97;6.60;;;5.90;99.90;;;;;;4955037;29;20469;-78
2024/01/07 09:36:10;;;;;;;14.70;7.13;;;5.90;99.90;;;;;;4956647;28;20159;-78
2024/01/07 09:38:36;;;;;;;14.03;7.20;;;5.90;99.90;;;;;;4954745;28;20056;-78
2024/01/07 09:41:02;;;;;;;16.77;6.93;;;5.90;99.90;;;;;;4956778;28;20035;-78
2024/01/07 09:43:28;;;;;;;14.30;6.87;;;5.90;99.90;;;;;;4956480;28;20020;-78
2024/01/07 09:45:56;;;;;;;14.30;6.57;;;5.90;99.90;;;;;;4954890;29;20042;-76
2024/01/07 09:48:21;;;;;;;13.77;6.20;;;6.00;99.90;;;;;;4955323;29;20055;-76
2024/01/07 09:50:48;;;;;;;13.27;6.43;;;6.00;99.90;;;;;;4954703;28;20065;-76
2024/01/07 09:53:16;;;;;;;14.33;6.67;;;6.00;99.90;;;;;;4955200;29;20047;-76
2024/01/07 09:56:06;;;;;;;16.33;7.17;;;6.10;99.90;;;;;;4954689;29;20042;-76
2024/01/07 09:58:32;;;;;;;12.80;6.80;;;6.10;99.90;;;;;;4954697;29;20026;-87
2024/01/07 10:00:57;;;;;;;14.27;6.27;;;6.20;99.90;;;;;;4954935;29;20033;-77
2024/01/07 10:03:24;;;;;;;12.93;6.53;;;6.20;99.90;;;;;;4956157;28;20118;-76
2024/01/07 10:05:50;;;;;;;15.10;7.00;;;6.20;99.90;;;;;;4960594;28;20035;-76
2024/01/07 10:08:15;;;;;;;12.70;6.20;;;6.20;99.90;;;;;;4973771;28;20384;-76
2024/01/07 10:10:41;;;;;;;11.23;6.00;;;6.20;99.90;;;;;;4975118;28;20106;-77
2024/01/07 10:13:08;;;;;;;13.00;6.47;;;6.20;99.90;;;;;;4974073;28;20490;-77
2024/01/07 10:15:34;;;;;;;12.87;5.97;;;6.20;99.90;;;;;;4973861;28;20057;-77
2024/01/07 10:18:05;;;;;;;12.37;6.40;;;6.20;99.90;;;;;;4975234;28;20456;-77
2024/01/07 10:20:33;;;;;;;15.93;6.38;;;6.30;99.90;;;;;;4974087;28;20026;-77
2024/01/07 10:22:59;;;;;;;9.90;5.43;;;6.30;99.90;;;;;;4975176;28;20038;-77
2024/01/07 10:25:24;;;;;;;14.03;6.43;;;6.20;99.90;;;;;;4973631;28;20035;-77
2024/01/07 10:27:50;;;;;;;13.47;5.80;;;6.20;99.90;;;;;;4974381;28;20027;-76
2024/01/07 10:30:16;;;;;;;10.93;5.67;;;6.20;99.90;;;;;;4974956;28;20034;-76
2024/01/07 10:32:43;;;;;;;14.33;6.07;;;6.20;99.90;;;;;;4973445;28;20400;-77
2024/01/07 10:35:18;;;;;;;10.53;6.10;;;6.20;99.90;;;;;;4974991;28;20035;-77
2024/01/07 10:37:44;;;;;;;15.07;6.70;;;6.20;99.90;;;;;;4973108;28;20059;-77
2024/01/07 10:40:11;;;;;;;13.53;6.13;;;6.20;99.90;;;;;;4974612;28;20031;-77
2024/01/07 10:42:38;;;;;;;11.57;6.17;;;6.20;99.90;;;;;;4973256;28;20388;-77
2024/01/07 10:45:04;;;;;;;11.43;5.90;;;6.10;99.90;;;;;;4974642;28;20047;-77
2024/01/07 10:47:31;;;;;;;11.93;6.47;;;6.10;99.90;;;;;;4973128;28;20520;-79
2024/01/07 10:49:59;;;;;;;13.23;6.40;;;6.00;99.90;;;;;;4972795;28;20117;-77
2024/01/07 10:52:27;;;;;;;13.77;5.97;;;6.00;99.90;;;;;;4973476;28;20077;-78
2024/01/07 10:54:56;;;;;;;11.03;5.53;;;5.90;99.90;;;;;;4973099;28;20058;-78
2024/01/07 10:57:47;;;;;;;13.83;6.33;;;5.90;99.90;;;;;;4973432;28;20061;-77
2024/01/07 11:00:18;;;;;;;12.93;6.10;;;5.90;99.90;;;;;;4973519;28;20374;-77
2024/01/07 11:03:04;;;;;;;12.02;5.63;;;5.80;99.90;;;;;;4973973;28;20034;-78
2024/01/07 11:05:44;;;;;;;9.23;5.70;;;5.80;99.90;;;;;;4973284;28;20035;-77
2024/01/07 11:08:31;;;;;;;10.97;5.13;;;5.80;99.90;;;;;;4958299;28;20054;-77
2024/01/07 11:11:17;;;;;;;11.50;5.53;;;5.80;99.90;;;;;;4953908;29;20121;-78
2024/01/07 11:13:44;;;;;;;9.87;5.10;;;5.80;99.90;;;;;;4954357;28;20058;-78
2024/01/07 11:16:10;;;;;;;8.33;4.50;;;5.70;99.90;;;;;;4953676;29;20031;-78
2024/01/07 11:18:45;;;;;;;11.57;5.23;;;5.70;99.90;;;;;;4954884;28;20031;-88
2024/01/07 11:21:20;;;;;;;9.37;5.03;;;5.70;99.90;;;;;;4954969;28;20098;-78
2024/01/07 11:23:46;;;;;;;10.23;4.57;;;5.70;99.90;;;;;;4954473;28;20098;-77
2024/01/07 11:26:12;;;;;;;7.27;3.97;;;5.70;99.90;;;;;;4953788;29;20039;-77
2024/01/07 11:28:51;;;;;;;8.10;3.73;;;5.70;99.90;;;;;;4953679;29;20362;-85
2024/01/07 11:31:19;;;;;;;6.57;3.30;;;5.70;99.90;;;;;;4954506;28;20429;-78
2024/01/07 11:33:50;;;;;;;5.67;3.47;;;5.60;99.90;;;;;;4952923;29;20031;-78
2024/01/07 11:36:19;;;;;;;6.67;3.23;;;5.60;99.90;;;;;;4953489;29;20122;-76
2024/01/07 11:38:48;;;;;;;4.97;3.20;;;5.60;99.90;;;;;;4952792;28;20082;-78
2024/01/07 11:41:16;;;;;;;4.57;2.77;;;5.60;99.90;;;;;;4953641;29;20067;-77
2024/01/07 11:43:59;;;;;;;4.53;2.73;;;5.60;99.90;;;;;;4954830;28;20027;-85
2024/01/07 11:46:26;;;;;;;5.20;2.53;;;5.60;99.90;;;;;;4954573;28;20034;-77
2024/01/07 11:48:58;;;;;;;4.73;2.50;;;5.60;99.90;;;;;;4954721;28;20059;-77
2024/01/07 11:51:31;;;;;;;5.00;2.77;;;5.60;99.90;;;;;;4953534;29;20523;-77
2024/01/07 11:54:00;;;;;;;4.10;2.13;;;5.60;99.90;;;;;;4953269;29;20082;-77
2024/01/07 11:56:27;;;;;;;4.50;2.50;;;5.70;99.90;;;;;;4953341;29;20058;-77
2024/01/07 11:58:52;;;;;;;3.37;2.10;;;5.70;99.90;;;;;;4954602;28;20035;-77
2024/01/07 12:01:19;;;;;;;3.63;2.23;;;5.70;99.90;;;;;;4953472;29;20038;-77
2024/01/07 12:03:45;;;;;;;3.07;2.07;;;5.70;99.90;;;;;;4952701;29;20836;-77
2024/01/07 12:06:14;;;;;;;3.57;2.50;;;5.70;99.90;;;;;;4953374;29;20393;-76
2024/01/07 12:08:41;;;;;;;4.83;2.47;;;5.70;99.90;;;;;;4953233;29;20027;-82
2024/01/07 12:11:07;;;;;;;3.00;2.00;;;5.70;99.90;;;;;;4953858;29;20039;-76
2024/01/07 12:13:33;;;;;;;5.03;2.93;;;5.80;99.90;;;;;;4953349;29;20473;-76
2024/01/07 12:15:59;;;;;;;6.70;3.13;;;5.80;99.90;;;;;;4952851;29;20032;-77
2024/01/07 12:18:26;;;;;;;7.57;3.60;;;5.70;99.90;;;;;;4952774;29;20024;-76
2024/01/07 12:20:58;;;;;;;9.83;3.97;;;5.70;99.90;;;;;;4952690;29;20027;-76
2024/01/07 12:23:25;;;;;;;7.00;3.53;;;5.70;99.90;;;;;;4954249;28;20027;-76
2024/01/07 12:25:51;;;;;;;5.53;3.37;;;5.70;99.90;;;;;;4952599;29;20039;-76
2024/01/07 12:28:19;;;;;;;9.23;4.13;;;5.70;99.90;;;;;;4954233;28;20031;-76
2024/01/07 12:30:47;;;;;;;9.67;4.17;;;5.60;99.90;;;;;;4953877;28;20027;-76
2024/01/07 12:33:18;;;;;;;6.57;3.70;;;5.60;99.90;;;;;;4956452;28;20058;-76
2024/01/07 12:35:45;;;;;;;7.90;3.87;;;5.50;99.90;;;;;;4957669;28;20432;-83
2024/01/07 12:38:11;;;;;;;8.83;4.10;;;5.50;99.90;;;;;;4956275;29;20075;-76
2024/01/07 12:40:36;;;;;;;6.27;3.63;;;5.50;99.90;;;;;;4956148;29;20066;-76
2024/01/07 12:43:02;;;;;;;9.90;3.90;;;5.50;99.90;;;;;;4957074;28;20031;-76
2024/01/07 12:45:28;;;;;;;6.53;3.77;;;5.50;99.90;;;;;;4956058;29;20046;-76